createdAt,value
2018-07-30T00:01:16.085Z,8.05
2018-07-30T00:03:45.669Z,7.42
2018-07-30T00:06:14.956Z,7.12
2018-07-30T00:08:43.923Z,7.40
2018-07-30T00:11:13.273Z,8.40
2018-07-30T00:13:42.544Z,7.42
2018-07-30T00:16:12.105Z,7.72
2018-07-30T00:18:41.183Z,8.00
2018-07-30T00:21:10.124Z,8.15
2018-07-30T00:23:39.764Z,8.80
2018-07-30T00:26:09.064Z,7.85
2018-07-30T00:28:38.367Z,7.55
2018-07-30T00:31:07.974Z,7.85
2018-07-30T00:33:37.580Z,7.33
2018-07-30T00:36:06.854Z,7.33
2018-07-30T00:38:36.211Z,8.58
2018-07-30T00:41:05.159Z,8.28
2018-07-30T00:43:34.605Z,8.08
2018-07-30T00:46:04.718Z,7.60
2018-07-30T00:48:33.665Z,7.30
2018-07-30T00:51:02.696Z,8.33
2018-07-30T00:53:32.256Z,8.35
2018-07-30T00:56:01.591Z,8.07
2018-07-30T00:58:31.429Z,7.67
2018-07-30T01:01:00.771Z,8.53
2018-07-30T01:03:30.123Z,9.93
2018-07-30T01:05:59.092Z,9.70
2018-07-30T01:08:28.402Z,9.13
2018-07-30T01:10:58.467Z,8.40
2018-07-30T01:13:27.589Z,8.73
2018-07-30T01:15:57.225Z,8.50
2018-07-30T01:18:26.672Z,8.15
2018-07-30T01:20:56.209Z,9.05
2018-07-30T01:23:25.434Z,9.40
2018-07-30T01:25:54.727Z,11.28
2018-07-30T01:28:23.981Z,11.60
2018-07-30T01:30:53.027Z,11.35
2018-07-30T01:33:21.996Z,11.12
2018-07-30T01:35:51.629Z,10.35
2018-07-30T01:38:21.237Z,10.18
2018-07-30T01:40:50.559Z,9.33
2018-07-30T01:43:19.505Z,9.63
2018-07-30T01:45:49.138Z,10.23
2018-07-30T01:48:18.746Z,9.70
2018-07-30T01:50:47.748Z,10.27
2018-07-30T01:53:17.655Z,10.40
2018-07-30T01:55:47.262Z,9.73
2018-07-30T01:58:16.549Z,10.60
2018-07-30T02:00:46.171Z,9.40
2018-07-30T02:03:15.778Z,9.23
2018-07-30T02:05:45.228Z,9.15
2018-07-30T02:08:14.356Z,9.53
2018-07-30T02:10:43.987Z,9.73
2018-07-30T02:13:13.595Z,8.93
2018-07-30T02:15:42.559Z,9.60
2018-07-30T02:18:11.576Z,9.70
2018-07-30T02:20:40.881Z,10.10
2018-07-30T02:23:09.931Z,10.97
2018-07-30T02:25:39.178Z,10.30
2018-07-30T02:28:08.476Z,9.85
2018-07-30T02:30:38.086Z,10.23
2018-07-30T02:33:07.692Z,9.93
2018-07-30T02:35:37.140Z,11.28
2018-07-30T02:38:06.675Z,10.15
2018-07-30T02:40:35.951Z,11.80
2018-07-30T02:43:04.896Z,12.47
2018-07-30T02:45:33.906Z,14.13
2018-07-30T02:48:02.863Z,13.63
2018-07-30T02:50:31.855Z,16.00
2018-07-30T02:53:00.880Z,16.10
2018-07-30T02:55:29.830Z,15.03
2018-07-30T02:57:59.469Z,15.07
2018-07-30T03:00:28.803Z,15.30
2018-07-30T03:02:58.064Z,13.60
2018-07-30T03:05:27.678Z,14.00
2018-07-30T03:07:56.659Z,15.60
2018-07-30T03:10:25.974Z,15.27
2018-07-30T03:12:56.501Z,14.68
2018-07-30T03:15:25.852Z,16.30
2018-07-30T03:17:55.097Z,14.67
2018-07-30T03:20:24.708Z,14.07
2018-07-30T03:22:54.012Z,14.10
2018-07-30T03:25:23.241Z,15.50
2018-07-30T03:27:53.225Z,16.27
2018-07-30T03:30:22.614Z,16.23
2018-07-30T03:32:51.826Z,16.30
2018-07-30T03:35:21.135Z,15.37
2018-07-30T03:37:50.093Z,15.87
2018-07-30T03:40:20.036Z,15.40
2018-07-30T03:42:49.325Z,16.37
2018-07-30T03:45:18.944Z,15.43
2018-07-30T03:47:48.220Z,15.57
2018-07-30T03:50:17.262Z,16.10
2018-07-30T03:52:47.766Z,15.80
2018-07-30T03:55:17.001Z,15.97
2018-07-30T03:57:46.506Z,16.07
2018-07-30T04:00:16.029Z,15.57
2018-07-30T04:02:45.889Z,16.30
2018-07-30T04:05:15.497Z,16.40
2018-07-30T04:07:45.148Z,16.75
2018-07-30T04:10:14.712Z,15.73
2018-07-30T04:12:44.082Z,15.03
2018-07-30T04:15:13.415Z,16.10
2018-07-30T04:17:42.627Z,18.17
2018-07-30T04:20:12.221Z,17.45
2018-07-30T04:22:41.490Z,18.90
2018-07-30T04:25:11.436Z,18.60
2018-07-30T04:27:40.738Z,18.13
2018-07-30T04:30:10.030Z,19.27
2018-07-30T04:32:39.310Z,18.55
2018-07-30T04:35:08.638Z,16.00
2018-07-30T04:37:38.394Z,18.07
2018-07-30T04:40:07.908Z,16.43
2018-07-30T04:42:36.836Z,16.07
2018-07-30T04:45:06.118Z,15.88
2018-07-30T04:47:35.756Z,15.95
2018-07-30T04:50:05.177Z,14.05
2018-07-30T04:52:34.472Z,14.80
2018-07-30T04:55:03.593Z,14.80
2018-07-30T04:57:32.713Z,14.38
2018-07-30T05:00:01.920Z,16.62
2018-07-30T05:02:31.252Z,16.60
2018-07-30T05:05:00.572Z,15.50
2018-07-30T05:07:30.163Z,14.70
2018-07-30T05:10:00.092Z,14.35
2018-07-30T05:12:29.682Z,14.75
2018-07-30T05:14:58.984Z,14.38
2018-07-30T05:17:28.298Z,15.25
2018-07-30T05:19:58.198Z,15.20
2018-07-30T05:22:27.806Z,15.20
2018-07-30T05:24:57.113Z,17.42
2018-07-30T05:27:26.143Z,15.15
2018-07-30T05:29:55.708Z,15.23
2018-07-30T05:32:25.036Z,13.98
2018-07-30T05:34:54.295Z,12.88
2018-07-30T05:37:23.954Z,13.62
2018-07-30T05:39:53.329Z,12.10
2018-07-30T05:42:22.508Z,11.50
2018-07-30T05:44:52.272Z,10.48
2018-07-30T05:47:21.417Z,11.70
2018-07-30T05:49:50.417Z,11.22
2018-07-30T05:52:19.867Z,11.45
2018-07-30T05:54:49.348Z,10.38
2018-07-30T05:57:18.368Z,11.55
2018-07-30T05:59:47.671Z,11.63
2018-07-30T06:02:17.030Z,11.12
2018-07-30T06:04:46.533Z,11.75
2018-07-30T06:07:15.506Z,11.60
2018-07-30T06:09:45.098Z,12.07
2018-07-30T06:12:14.242Z,11.95
2018-07-30T06:14:43.734Z,11.18
2018-07-30T06:17:13.341Z,13.32
2018-07-30T06:19:42.957Z,12.45
2018-07-30T06:22:12.251Z,11.73
2018-07-30T06:24:41.545Z,11.50
2018-07-30T06:27:10.854Z,12.40
2018-07-30T06:29:40.201Z,11.50
2018-07-30T06:32:09.465Z,11.85
2018-07-30T06:34:38.768Z,12.28
2018-07-30T06:37:08.046Z,12.03
2018-07-30T06:39:37.501Z,11.03
2018-07-30T06:42:07.266Z,12.53
2018-07-30T06:44:36.874Z,11.30
2018-07-30T06:47:06.270Z,11.38
2018-07-30T06:49:35.167Z,11.33
2018-07-30T06:52:05.087Z,11.78
2018-07-30T06:54:34.690Z,12.50
2018-07-30T06:57:05.944Z,10.95
2018-07-30T06:59:35.396Z,11.78
2018-07-30T07:02:06.021Z,10.60
2018-07-30T07:04:34.995Z,11.70
2018-07-30T07:07:05.036Z,11.22
2018-07-30T07:09:43.599Z,11.40
2018-07-30T07:12:12.724Z,11.93
2018-07-30T07:14:42.611Z,11.43
2018-07-30T07:17:11.605Z,10.88
2018-07-30T07:19:40.895Z,10.85
2018-07-30T07:22:10.827Z,14.58
2018-07-30T07:24:41.348Z,10.45
2018-07-30T07:27:10.822Z,11.00
2018-07-30T07:29:40.267Z,10.55
2018-07-30T07:32:09.609Z,10.85
2018-07-30T07:34:39.165Z,10.90
2018-07-30T07:37:09.082Z,9.70
2018-07-30T07:39:38.107Z,11.60
2018-07-30T07:42:07.682Z,10.88
2018-07-30T07:44:37.596Z,10.05
2018-07-30T07:47:06.902Z,10.13
2018-07-30T07:49:36.296Z,8.65
2018-07-30T07:52:06.422Z,9.55
2018-07-30T07:54:35.403Z,8.23
2018-07-30T07:57:04.968Z,8.88
2018-07-30T07:59:35.480Z,9.58
2018-07-30T08:02:05.199Z,9.15
2018-07-30T08:04:34.780Z,8.70
2018-07-30T08:07:04.372Z,8.48
2018-07-30T08:09:33.768Z,9.25
2018-07-30T08:12:03.060Z,8.65
2018-07-30T08:14:31.948Z,8.20
2018-07-30T08:17:01.808Z,8.35
2018-07-30T08:19:30.910Z,8.20
2018-07-30T08:22:00.239Z,7.78
2018-07-30T08:24:29.778Z,9.50
2018-07-30T08:26:59.401Z,8.60
2018-07-30T08:29:28.801Z,9.23
2018-07-30T08:31:58.541Z,8.43
2018-07-30T08:34:28.214Z,7.58
2018-07-30T08:36:57.510Z,8.13
2018-07-30T08:39:26.745Z,8.98
2018-07-30T08:41:56.121Z,9.08
2018-07-30T08:44:25.344Z,8.95
2018-07-30T08:46:55.024Z,8.38
2018-07-30T08:49:24.413Z,8.68
2018-07-30T08:51:53.348Z,7.83
2018-07-30T08:54:22.636Z,8.80
2018-07-30T08:56:51.925Z,8.10
2018-07-30T08:59:21.227Z,7.80
2018-07-30T09:01:50.785Z,8.08
2018-07-30T09:04:20.586Z,8.08
2018-07-30T09:06:50.350Z,7.85
2018-07-30T09:09:19.667Z,8.25
2018-07-30T09:11:48.931Z,7.58
2018-07-30T09:14:18.558Z,7.45
2018-07-30T09:16:47.827Z,8.40
2018-07-30T09:19:17.139Z,8.38
2018-07-30T09:21:46.370Z,8.25
2018-07-30T09:24:15.939Z,12.98
2018-07-30T09:26:45.723Z,10.05
2018-07-30T09:29:14.673Z,7.97
2018-07-30T09:31:44.275Z,8.38
2018-07-30T09:34:13.882Z,9.15
2018-07-30T09:36:43.490Z,8.23
2018-07-30T09:39:13.029Z,8.78
2018-07-30T09:41:42.111Z,8.33
2018-07-30T09:44:11.085Z,8.33
2018-07-30T09:46:40.181Z,8.40
2018-07-30T09:49:09.992Z,7.87
2018-07-30T09:51:39.339Z,8.08
2018-07-30T09:54:09.139Z,7.87
2018-07-30T09:56:38.815Z,7.53
2018-07-30T09:59:08.073Z,9.35
2018-07-30T10:01:37.724Z,12.75
2018-07-30T10:04:06.713Z,12.25
2018-07-30T10:06:36.632Z,12.53
2018-07-30T10:09:08.701Z,13.70
2018-07-30T10:11:38.651Z,12.00
2018-07-30T10:14:08.240Z,11.40
2018-07-30T10:16:37.764Z,11.83
2018-07-30T10:19:07.462Z,12.95
2018-07-30T10:21:37.056Z,12.87
2018-07-30T10:24:06.802Z,11.38
2018-07-30T10:26:36.589Z,12.35
2018-07-30T10:29:06.201Z,11.48
2018-07-30T10:31:35.781Z,11.03
2018-07-30T10:34:06.003Z,11.30
2018-07-30T10:36:35.559Z,12.35
2018-07-30T10:39:06.160Z,12.63
2018-07-30T10:41:35.695Z,13.18
2018-07-30T10:44:05.165Z,11.50
2018-07-30T10:46:34.964Z,11.73
2018-07-30T10:49:04.577Z,12.85
2018-07-30T10:51:33.948Z,10.90
2018-07-30T10:54:03.628Z,11.73
2018-07-30T10:56:33.939Z,10.60
2018-07-30T10:59:03.391Z,11.30
2018-07-30T11:01:32.612Z,11.43
2018-07-30T11:04:02.218Z,11.35
2018-07-30T11:06:31.518Z,10.85
2018-07-30T11:09:00.816Z,10.72
2018-07-30T11:11:30.104Z,11.65
2018-07-30T11:13:59.876Z,10.08
2018-07-30T11:16:36.141Z,9.60
2018-07-30T11:19:05.615Z,9.70
2018-07-30T11:21:35.010Z,9.75
2018-07-30T11:24:04.608Z,11.03
2018-07-30T11:26:33.878Z,10.25
2018-07-30T11:29:03.832Z,9.23
2018-07-30T11:31:34.033Z,10.32
2018-07-30T11:34:04.713Z,10.90
2018-07-30T11:36:35.142Z,9.70
2018-07-30T11:39:04.668Z,10.78
2018-07-30T11:41:34.048Z,9.60
2018-07-30T11:44:03.327Z,11.60
2018-07-30T11:46:33.229Z,10.03
2018-07-30T11:49:02.205Z,11.73
2018-07-30T11:51:32.138Z,10.95
2018-07-30T11:54:01.477Z,10.82
2018-07-30T11:56:30.947Z,9.70
2018-07-30T11:59:00.334Z,10.18
2018-07-30T12:01:29.777Z,10.25
2018-07-30T12:03:59.255Z,9.05
2018-07-30T12:06:28.861Z,9.40
2018-07-30T12:08:58.509Z,9.38
2018-07-30T12:11:28.077Z,8.65
2018-07-30T12:13:57.684Z,8.68
2018-07-30T12:16:26.707Z,10.18
2018-07-30T12:18:55.699Z,9.33
2018-07-30T12:21:24.975Z,9.25
2018-07-30T12:23:54.641Z,9.25
2018-07-30T12:26:24.736Z,9.13
2018-07-30T12:28:54.717Z,8.58
2018-07-30T12:31:24.036Z,8.13
2018-07-30T12:33:53.592Z,8.10
2018-07-30T12:36:23.554Z,8.05
2018-07-30T12:39:02.128Z,8.18
2018-07-30T12:41:31.343Z,8.70
2018-07-30T12:44:00.979Z,10.20
2018-07-30T12:46:30.255Z,10.18
2018-07-30T12:48:59.933Z,10.13
2018-07-30T12:51:29.720Z,9.28
2018-07-30T12:53:59.433Z,8.43
2018-07-30T12:56:28.384Z,9.20
2018-07-30T12:58:57.690Z,7.75
2018-07-30T13:01:26.726Z,9.03
2018-07-30T13:03:56.597Z,8.13
2018-07-30T13:06:26.204Z,7.90
2018-07-30T13:08:57.701Z,7.55
2018-07-30T13:11:27.016Z,8.83
2018-07-30T13:13:56.272Z,8.53
2018-07-30T13:16:25.866Z,7.30
2018-07-30T13:18:55.444Z,7.28
2018-07-30T13:21:24.797Z,7.85
2018-07-30T13:23:54.059Z,6.90
2018-07-30T13:26:23.175Z,7.12
2018-07-30T13:28:53.093Z,6.80
2018-07-30T13:31:22.264Z,7.65
2018-07-30T13:33:51.755Z,6.62
2018-07-30T13:36:23.341Z,7.53
2018-07-30T13:38:56.609Z,6.78
2018-07-30T13:41:29.621Z,6.12
2018-07-30T13:43:59.159Z,6.87
2018-07-30T13:46:29.169Z,6.83
2018-07-30T13:48:58.757Z,6.53
2018-07-30T13:51:33.280Z,7.42
2018-07-30T13:54:04.269Z,6.27
2018-07-30T13:56:33.601Z,7.17
2018-07-30T13:59:03.831Z,5.95
2018-07-30T14:01:37.740Z,6.65
2018-07-30T14:04:09.357Z,7.03
2018-07-30T14:06:44.853Z,6.42
2018-07-30T14:09:15.820Z,6.90
2018-07-30T14:11:45.449Z,7.12
2018-07-30T14:14:15.729Z,7.80
2018-07-30T14:16:47.538Z,7.35
2018-07-30T14:19:18.873Z,8.05
2018-07-30T14:21:48.684Z,7.20
2018-07-30T14:24:22.100Z,7.22
2018-07-30T14:26:54.205Z,6.47
2018-07-30T14:29:28.118Z,7.00
2018-07-30T14:32:05.723Z,7.10
2018-07-30T14:34:35.568Z,7.45
2018-07-30T14:37:07.077Z,7.03
2018-07-30T14:39:36.457Z,6.87
2018-07-30T14:42:05.703Z,7.42
2018-07-30T14:44:34.974Z,7.78
2018-07-30T14:47:07.044Z,7.50
2018-07-30T14:49:37.261Z,8.18
2018-07-30T14:52:06.870Z,7.90
2018-07-30T14:54:36.204Z,7.85
2018-07-30T14:57:06.019Z,8.70
2018-07-30T14:59:38.210Z,9.53
2018-07-30T15:02:09.445Z,8.60
2018-07-30T15:04:39.669Z,9.23
2018-07-30T15:07:09.478Z,8.58
2018-07-30T15:09:39.073Z,9.58
2018-07-30T15:12:08.463Z,9.13
2018-07-30T15:14:38.408Z,9.00
2018-07-30T15:17:07.898Z,9.15
2018-07-30T15:19:37.584Z,8.85
2018-07-30T15:22:07.124Z,9.15
2018-07-30T15:24:36.698Z,9.03
2018-07-30T15:27:08.444Z,8.85
2018-07-30T15:29:37.835Z,8.53
2018-07-30T15:32:07.336Z,9.45
2018-07-30T15:34:37.181Z,9.60
2018-07-30T15:37:06.279Z,9.63
2018-07-30T15:39:35.866Z,8.95
2018-07-30T15:42:06.015Z,8.80
2018-07-30T15:44:35.086Z,8.75
2018-07-30T15:47:04.504Z,8.65
2018-07-30T15:49:34.139Z,9.70
2018-07-30T15:52:04.020Z,9.23
2018-07-30T15:54:33.806Z,8.58
2018-07-30T15:57:03.192Z,9.65
2018-07-30T15:59:33.486Z,9.65
2018-07-30T16:02:03.666Z,8.40
2018-07-30T16:04:35.602Z,8.23
2018-07-30T16:07:06.897Z,8.65
2018-07-30T16:09:39.830Z,9.00
2018-07-30T16:12:11.535Z,8.40
2018-07-30T16:14:46.906Z,7.95
2018-07-30T16:17:17.802Z,8.18
2018-07-30T16:19:48.467Z,8.43
2018-07-30T16:22:18.402Z,8.68
2018-07-30T16:24:48.158Z,8.15
2018-07-30T16:27:19.098Z,8.60
2018-07-30T16:29:48.591Z,8.00
2018-07-30T16:32:18.213Z,7.42
2018-07-30T16:34:47.808Z,8.05
2018-07-30T16:37:17.166Z,8.05
2018-07-30T16:39:46.994Z,8.60
2018-07-30T16:42:16.210Z,6.87
2018-07-30T16:44:45.942Z,7.37
2018-07-30T16:47:15.364Z,7.25
2018-07-30T16:49:45.163Z,8.00
2018-07-30T16:52:15.189Z,7.70
2018-07-30T16:54:44.707Z,7.87
2018-07-30T16:57:14.337Z,7.72
2018-07-30T16:59:43.668Z,8.18
2018-07-30T17:02:12.548Z,9.00
2018-07-30T17:04:41.582Z,9.38
2018-07-30T17:07:13.003Z,9.95
2018-07-30T17:09:42.424Z,9.65
2018-07-30T17:12:11.931Z,8.53
2018-07-30T17:14:41.543Z,9.23
2018-07-30T17:17:10.828Z,9.40
2018-07-30T17:19:40.756Z,10.20
2018-07-30T17:22:10.171Z,9.65
2018-07-30T17:24:39.635Z,10.53
2018-07-30T17:27:10.459Z,11.05
2018-07-30T17:29:39.836Z,10.10
2018-07-30T17:32:09.409Z,10.82
2018-07-30T17:34:38.916Z,10.63
2018-07-30T17:37:08.769Z,10.78
2018-07-30T17:39:38.542Z,10.32
2018-07-30T17:42:10.528Z,10.80
2018-07-30T17:44:39.928Z,11.20
2018-07-30T17:47:09.513Z,10.78
2018-07-30T17:49:38.908Z,11.15
2018-07-30T17:52:08.263Z,10.68
2018-07-30T17:54:38.337Z,9.23
2018-07-30T17:57:07.947Z,9.95
2018-07-30T17:59:37.565Z,10.05
2018-07-30T18:02:06.642Z,10.25
2018-07-30T18:04:35.845Z,11.38
2018-07-30T18:07:05.761Z,10.85
2018-07-30T18:09:35.009Z,10.48
2018-07-30T18:12:04.372Z,11.25
2018-07-30T18:14:33.664Z,10.65
2018-07-30T18:17:03.729Z,11.20
2018-07-30T18:19:33.441Z,10.23
2018-07-30T18:22:04.191Z,10.48
2018-07-30T18:24:34.289Z,11.28
2018-07-30T18:27:03.676Z,12.45
2018-07-30T18:29:33.440Z,9.98
2018-07-30T18:32:03.070Z,12.23
2018-07-30T18:34:32.823Z,12.43
2018-07-30T18:37:02.282Z,11.97
2018-07-30T18:39:31.630Z,11.10
2018-07-30T18:42:00.995Z,10.78
2018-07-30T18:44:30.491Z,10.40
2018-07-30T18:46:59.789Z,11.15
2018-07-30T18:49:29.120Z,10.48
2018-07-30T18:51:58.397Z,10.00
2018-07-30T18:54:28.002Z,8.93
2018-07-30T18:56:57.916Z,10.00
2018-07-30T18:59:27.343Z,9.68
2018-07-30T19:01:57.438Z,9.08
2018-07-30T19:04:27.046Z,8.93
2018-07-30T19:06:56.336Z,8.65
2018-07-30T19:09:26.114Z,8.68
2018-07-30T19:11:55.870Z,8.50
2018-07-30T19:14:26.094Z,8.58
2018-07-30T19:16:56.340Z,7.80
2018-07-30T19:19:25.622Z,8.33
2018-07-30T19:21:54.901Z,7.55
2018-07-30T19:24:26.309Z,8.03
2018-07-30T19:26:56.394Z,8.30
2018-07-30T19:29:26.830Z,9.20
2018-07-30T19:31:57.239Z,8.23
2018-07-30T19:34:26.474Z,8.35
2018-07-30T19:36:56.999Z,8.35
2018-07-30T19:39:27.713Z,8.78
2018-07-30T19:41:58.318Z,8.45
2018-07-30T19:44:28.742Z,8.80
2018-07-30T19:46:58.609Z,8.35
2018-07-30T19:49:29.653Z,8.10
2018-07-30T19:52:00.740Z,8.53
2018-07-30T19:54:30.174Z,8.53
2018-07-30T19:56:59.975Z,8.23
2018-07-30T19:59:30.686Z,9.08
2018-07-30T20:02:01.543Z,8.78
2018-07-30T20:04:31.150Z,8.60
2018-07-30T20:07:01.757Z,8.88
2018-07-30T20:09:31.834Z,8.63
2018-07-30T20:12:02.254Z,8.48
2018-07-30T20:14:33.859Z,9.03
2018-07-30T20:17:04.058Z,8.18
2018-07-30T20:19:33.449Z,8.83
2018-07-30T20:22:03.319Z,8.65
2018-07-30T20:24:33.171Z,9.05
2018-07-30T20:27:05.504Z,8.65
2018-07-30T20:29:35.640Z,8.58
2018-07-30T20:32:05.684Z,7.90
2018-07-30T20:34:35.039Z,8.20
2018-07-30T20:37:04.488Z,8.60
2018-07-30T20:39:33.662Z,8.20
2018-07-30T20:42:03.681Z,8.18
2018-07-30T20:44:33.782Z,7.53
2018-07-30T20:47:03.388Z,8.48
2018-07-30T20:49:34.127Z,7.78
2018-07-30T20:52:03.568Z,7.62
2018-07-30T20:54:33.981Z,7.90
2018-07-30T20:57:03.396Z,9.68
2018-07-30T20:59:33.614Z,9.15
2018-07-30T21:02:02.895Z,9.80
2018-07-30T21:04:32.172Z,10.38
2018-07-30T21:07:01.469Z,10.20
2018-07-30T21:09:31.410Z,9.53
2018-07-30T21:12:01.395Z,9.05
2018-07-30T21:14:30.915Z,9.50
2018-07-30T21:17:00.051Z,8.80
2018-07-30T21:19:29.668Z,9.18
2018-07-30T21:21:59.232Z,10.68
2018-07-30T21:24:28.477Z,10.38
2018-07-30T21:26:58.032Z,9.50
2018-07-30T21:29:27.215Z,8.98
2018-07-30T21:31:56.287Z,8.80
2018-07-30T21:34:26.005Z,8.65
2018-07-30T21:36:55.237Z,8.85
2018-07-30T21:39:24.254Z,9.35
2018-07-30T21:41:53.554Z,8.90
2018-07-30T21:44:22.504Z,8.18
2018-07-30T21:46:51.817Z,9.13
2018-07-30T21:49:21.739Z,9.28
2018-07-30T21:51:51.092Z,9.35
2018-07-30T21:54:20.328Z,8.70
2018-07-30T21:56:49.968Z,8.78
2018-07-30T21:59:19.704Z,8.60
2018-07-30T22:01:49.163Z,8.33
2018-07-30T22:04:18.161Z,8.48
2018-07-30T22:06:47.604Z,8.78
2018-07-30T22:09:16.788Z,8.03
2018-07-30T22:11:46.314Z,8.45
2018-07-30T22:14:15.972Z,7.78
2018-07-30T22:16:45.271Z,8.18
2018-07-30T22:19:14.255Z,8.18
2018-07-30T22:21:43.873Z,8.15
2018-07-30T22:24:13.319Z,7.40
2018-07-30T22:26:43.360Z,8.13
2018-07-30T22:29:13.318Z,8.60
2018-07-30T22:31:43.059Z,8.58
2018-07-30T22:34:12.319Z,8.40
2018-07-30T22:36:41.816Z,8.43
2018-07-30T22:39:12.670Z,7.95
2018-07-30T22:41:42.577Z,8.28
2018-07-30T22:44:11.561Z,9.33
2018-07-30T22:46:41.178Z,9.38
2018-07-30T22:49:10.208Z,8.63
2018-07-30T22:51:39.487Z,9.10
2018-07-30T22:54:08.770Z,8.35
2018-07-30T22:56:38.692Z,8.90
2018-07-30T22:59:08.612Z,9.18
2018-07-30T23:01:37.663Z,9.25
2018-07-30T23:04:06.832Z,8.85
2018-07-30T23:06:35.997Z,9.88
2018-07-30T23:09:06.451Z,8.95
2018-07-30T23:11:36.026Z,8.95
2018-07-30T23:14:05.941Z,9.10
2018-07-30T23:16:35.549Z,8.85
2018-07-30T23:19:05.391Z,8.30
2018-07-30T23:21:35.072Z,8.63
2018-07-30T23:24:04.183Z,8.80
2018-07-30T23:26:33.672Z,8.65
2018-07-30T23:29:02.750Z,9.10
2018-07-30T23:31:32.061Z,8.93
2018-07-30T23:34:01.280Z,9.48
2018-07-30T23:36:30.556Z,10.08
2018-07-30T23:39:00.176Z,10.25
2018-07-30T23:41:29.142Z,10.50
2018-07-30T23:43:58.776Z,9.78
2018-07-30T23:46:28.384Z,9.28
2018-07-30T23:48:57.687Z,9.23
2018-07-30T23:51:26.654Z,10.55
2018-07-30T23:53:55.989Z,10.40
2018-07-30T23:56:25.736Z,10.43
2018-07-30T23:58:55.501Z,9.68
